Aérodrome :
LOGIN :

S'inscrire | Disclaimer

   EN    FR    IT 

 










Légende :    VFR   VFR Marginal   IFR   IFR Intensif   IFR Très Intensif
Visi : 
Plafond : 
>= 8 km
>= 3000ft
5 à 8 km
1000 à 3000 ft
1500m à 5 km
500 à 1000 ft
800 à 1500m
200 à 500 ft
< 800m
< 200 ft
Symboles :   Orages  Brouillard  Fortes neiges  Fortes précipitations  Vent > 20 kt
SIGMETs :   Divers  Orages  Givrage  Turbulence  Onde Orograph.  Cendres Volcan.







- Altitude de l'aérodrome : 249 ft


EGOS - RAF Shawbury

DERNIER METAR :
  • 290650Z 31008KT 9999 -DZ FEW006 BKN008 OVC015 12/11 Q0994 BLACKGRN NOSIG

METARs EXPIRÉS :
  • 290550Z 31009KT 9999 SCT008 BKN015 OVC022 12/10 Q0994 GRN
  • 290450Z AUTO 32009KT 9999 BKN007/// BKN014/// 11/10 Q0995

TAF TAF EGOS
Valide du 29 à 06h jusqu'au 29 à 15h UTC


290545Z 2906/2915 31010KT 9999 BKN008
PROB30
TEMPO 2906/2911 3000 DZ SCT006
BECMG 2911/2914 FEW010 BKN018
PROB30
TEMPO 2911/2915 4000 -DZ
TEMPO 2914/2915 BKN012
Pas de NOTAMs connus pour ce terrain.



MET'MAP, la Météo Aéronautique d'un coup d'oeil ! - Copyright ORBIFLY Décembre 2007 - Disclaimer

ORBIFLY MET'MAP TEAM :

Programmation & Développement : Alexandra Zaïnal
Conception & Développement : Baudouin d'Aumeries
Co-Programmation & Développement : Marc-Olivier Méhu
Soutien technique & logistique : Manuel Goepfert

Contact : metmap@orbifly.com




SOURCES & CREDITS :

   NOAA